createdAt,value
2023-02-22T00:01:47.351Z,2.9
2023-02-22T00:04:13.452Z,2.9
2023-02-22T00:06:39.547Z,2.8
2023-02-22T00:09:05.648Z,2.8
2023-02-22T00:11:30.753Z,2.8
2023-02-22T00:13:56.844Z,2.8
2023-02-22T00:16:22.965Z,2.8
2023-02-22T00:18:49.045Z,2.8
2023-02-22T00:21:15.139Z,2.8
2023-02-22T00:23:41.240Z,2.8
2023-02-22T00:26:07.323Z,2.7
2023-02-22T00:28:33.443Z,2.7
2023-02-22T00:30:59.521Z,2.7
2023-02-22T00:33:25.609Z,2.7
2023-02-22T00:35:51.731Z,2.7
2023-02-22T00:38:17.803Z,2.7
2023-02-22T00:40:43.913Z,2.7
2023-02-22T00:43:10.022Z,2.7
2023-02-22T00:45:36.105Z,2.7
2023-02-22T00:48:02.201Z,2.7
2023-02-22T00:50:28.294Z,2.7
2023-02-22T00:52:54.390Z,2.7
2023-02-22T00:55:20.492Z,2.7
2023-02-22T00:57:46.601Z,2.7
2023-02-22T01:00:12.683Z,2.7
2023-02-22T01:02:37.797Z,2.7
2023-02-22T01:05:03.878Z,2.7
2023-02-22T01:07:29.982Z,2.7
2023-02-22T01:09:56.113Z,2.6
2023-02-22T01:12:22.174Z,2.6
2023-02-22T01:14:48.276Z,2.6
2023-02-22T01:17:14.382Z,2.6
2023-02-22T01:19:40.474Z,2.6
2023-02-22T01:22:06.581Z,2.5
2023-02-22T01:24:32.667Z,2.5
2023-02-22T01:26:58.759Z,2.5
2023-02-22T01:29:24.858Z,2.5
2023-02-22T01:31:50.967Z,2.5
2023-02-22T01:34:16.058Z,2.5
2023-02-22T01:36:42.158Z,2.5
2023-02-22T01:39:08.263Z,2.5
2023-02-22T01:41:34.352Z,2.4
2023-02-22T01:44:00.450Z,2.4
2023-02-22T01:46:26.555Z,2.4
2023-02-22T01:48:52.641Z,2.4
2023-02-22T01:51:18.749Z,2.4
2023-02-22T01:53:44.846Z,2.4
2023-02-22T01:56:10.932Z,2.4
2023-02-22T01:58:37.050Z,2.4
2023-02-22T02:01:03.148Z,2.3
2023-02-22T02:03:29.229Z,2.3
2023-02-22T02:05:54.343Z,2.3
2023-02-22T02:08:20.436Z,2.3
2023-02-22T02:10:46.545Z,2.2
2023-02-22T02:13:12.630Z,2.2
2023-02-22T02:15:38.720Z,2.2
2023-02-22T02:18:04.821Z,2.2
2023-02-22T02:20:30.937Z,2.1
2023-02-22T02:22:57.016Z,2.1
2023-02-22T02:25:23.207Z,2.1
2023-02-22T02:27:49.227Z,2.1
2023-02-22T02:30:15.327Z,2.1
2023-02-22T02:32:41.425Z,2.1
2023-02-22T02:35:07.505Z,2.1
2023-02-22T02:37:32.618Z,2.1
2023-02-22T02:39:58.754Z,2.1
2023-02-22T02:42:24.828Z,2.1
2023-02-22T02:44:50.923Z,2.1
2023-02-22T02:49:43.113Z,2.1
2023-02-22T02:52:09.206Z,2.1
2023-02-22T02:54:35.315Z,2.1
2023-02-22T02:57:01.402Z,2.1
2023-02-22T02:59:27.497Z,2.1
2023-02-22T03:01:53.630Z,2.1
2023-02-22T03:04:19.693Z,2.1
2023-02-22T03:06:45.789Z,2.1
2023-02-22T03:09:10.911Z,2.1
2023-02-22T03:11:37.002Z,2.1
2023-02-22T03:14:03.110Z,2.1
2023-02-22T03:16:29.201Z,2.1
2023-02-22T03:18:55.322Z,2.1
2023-02-22T03:21:21.388Z,2.1
2023-02-22T03:23:47.481Z,2.1
2023-02-22T03:26:13.588Z,2.1
2023-02-22T03:28:39.721Z,2.1
2023-02-22T03:31:05.793Z,2.1
2023-02-22T03:33:30.896Z,2.1
2023-02-22T03:35:57.001Z,2
2023-02-22T03:38:23.087Z,2
2023-02-22T03:40:49.188Z,2
2023-02-22T03:43:15.296Z,2
2023-02-22T03:45:41.395Z,2
2023-02-22T03:48:07.483Z,1.9
2023-02-22T03:50:33.572Z,1.9
2023-02-22T03:52:59.681Z,1.9
2023-02-22T03:55:25.780Z,1.9
2023-02-22T03:57:51.878Z,1.9
2023-02-22T04:00:17.964Z,1.8
2023-02-22T04:02:44.046Z,1.8
2023-02-22T04:05:09.188Z,1.8
2023-02-22T04:07:35.280Z,1.8
2023-02-22T04:10:01.388Z,1.8
2023-02-22T04:12:27.464Z,1.8
2023-02-22T04:14:53.576Z,1.8
2023-02-22T04:17:19.662Z,1.8
2023-02-22T04:19:45.769Z,1.8
2023-02-22T04:22:11.878Z,1.8
2023-02-22T04:24:37.980Z,1.8
2023-02-22T04:27:04.060Z,1.8
2023-02-22T04:29:30.163Z,1.8
2023-02-22T04:31:56.260Z,1.8
2023-02-22T04:34:22.372Z,1.8
2023-02-22T04:36:47.464Z,1.7
2023-02-22T04:39:13.560Z,1.7
2023-02-22T04:41:39.694Z,1.7
2023-02-22T04:44:05.763Z,1.7
2023-02-22T04:46:31.874Z,1.7
2023-02-22T04:48:57.951Z,1.7
2023-02-22T04:51:24.044Z,1.7
2023-02-22T04:53:50.153Z,1.7
2023-02-22T04:56:16.278Z,1.7
2023-02-22T04:58:42.345Z,1.7
2023-02-22T05:01:08.430Z,1.6
2023-02-22T05:03:34.555Z,1.6
2023-02-22T05:06:00.643Z,1.6
2023-02-22T05:08:25.756Z,1.6
2023-02-22T05:10:51.860Z,1.6
2023-02-22T05:13:17.970Z,1.6
2023-02-22T05:15:44.043Z,1.6
2023-02-22T05:18:10.138Z,1.5
2023-02-22T05:20:36.224Z,1.5
2023-02-22T05:23:02.342Z,1.5
2023-02-22T05:25:28.418Z,1.5
2023-02-22T05:27:54.530Z,1.5
2023-02-22T05:30:20.615Z,1.5
2023-02-22T05:32:46.725Z,1.5
2023-02-22T05:35:12.825Z,1.5
2023-02-22T05:37:38.921Z,1.5
2023-02-22T05:40:04.041Z,1.5
2023-02-22T05:42:30.113Z,1.5
2023-02-22T05:44:56.215Z,1.5
2023-02-22T05:47:22.330Z,1.5
2023-02-22T05:52:14.521Z,1.5
2023-02-22T05:54:40.613Z,1.5
2023-02-22T05:57:06.704Z,1.5
2023-02-22T05:59:32.806Z,1.5
2023-02-22T06:01:58.903Z,1.5
2023-02-22T06:04:24.998Z,1.5
2023-02-22T06:06:51.089Z,1.5
2023-02-22T06:09:17.195Z,1.5
2023-02-22T06:11:42.314Z,1.5
2023-02-22T06:14:08.399Z,1.5
2023-02-22T06:16:34.487Z,1.5
2023-02-22T06:19:00.602Z,1.5
2023-02-22T06:21:26.708Z,1.5
2023-02-22T06:23:52.797Z,1.5
2023-02-22T06:26:18.949Z,1.5
2023-02-22T06:28:45.053Z,1.5
2023-02-22T06:31:11.068Z,1.5
2023-02-22T06:33:37.190Z,1.5
2023-02-22T06:38:29.389Z,1.5
2023-02-22T06:40:55.481Z,1.5
2023-02-22T06:43:20.668Z,1.5
2023-02-22T06:45:46.674Z,1.6
2023-02-22T06:48:12.787Z,1.6
2023-02-22T06:50:38.885Z,1.6
2023-02-22T06:53:04.968Z,1.6
2023-02-22T06:55:31.075Z,1.6
2023-02-22T06:57:57.181Z,1.6
2023-02-22T07:00:23.281Z,1.7
2023-02-22T07:02:49.397Z,1.7
2023-02-22T07:05:15.465Z,1.7
2023-02-22T07:07:41.572Z,1.7
2023-02-22T07:10:07.678Z,1.8
2023-02-22T07:12:33.764Z,1.8
2023-02-22T07:14:58.863Z,1.9
2023-02-22T07:17:24.982Z,1.9
2023-02-22T07:19:51.062Z,2
2023-02-22T07:22:17.173Z,2.1
2023-02-22T07:24:43.272Z,2.1
2023-02-22T07:27:09.363Z,2.2
2023-02-22T07:29:35.449Z,2.3
2023-02-22T07:32:01.547Z,2.4
2023-02-22T07:34:27.647Z,2.4
2023-02-22T07:36:53.737Z,2.5
2023-02-22T07:39:19.853Z,2.6
2023-02-22T07:41:45.947Z,2.7
2023-02-22T07:44:12.032Z,2.8
2023-02-22T07:46:37.149Z,2.9
2023-02-22T07:49:03.277Z,2.9
2023-02-22T07:51:29.386Z,3
2023-02-22T07:53:55.443Z,3.1
2023-02-22T07:56:21.561Z,3.2
2023-02-22T07:58:47.657Z,3.2
2023-02-22T08:01:13.731Z,3.3
2023-02-22T08:03:39.846Z,3.3
2023-02-22T08:06:06.063Z,3.4
2023-02-22T08:08:32.051Z,3.5
2023-02-22T08:10:58.118Z,3.5
2023-02-22T08:13:24.210Z,3.6
2023-02-22T08:15:50.323Z,3.7
2023-02-22T08:18:15.416Z,3.7
2023-02-22T08:20:41.555Z,3.8
2023-02-22T08:23:07.613Z,3.9
2023-02-22T08:25:33.716Z,4
2023-02-22T08:27:59.828Z,4.1
2023-02-22T08:30:25.926Z,4.1
2023-02-22T08:32:52.010Z,4.2
2023-02-22T08:35:18.100Z,4.3
2023-02-22T08:37:44.253Z,4.4
2023-02-22T08:40:10.353Z,4.5
2023-02-22T08:42:36.448Z,4.6
2023-02-22T08:45:02.500Z,4.6
2023-02-22T08:47:28.579Z,4.7
2023-02-22T08:49:53.685Z,4.8
2023-02-22T08:54:45.879Z,4.9
2023-02-22T08:57:11.962Z,4.9
2023-02-22T08:59:38.060Z,5
2023-02-22T09:02:04.181Z,5.1
2023-02-22T09:04:30.252Z,5.1
2023-02-22T09:06:56.347Z,5.2
2023-02-22T09:09:22.453Z,5.3
2023-02-22T09:11:48.537Z,5.3
2023-02-22T09:14:14.697Z,5.4
2023-02-22T09:16:40.735Z,5.5
2023-02-22T09:19:06.862Z,5.6
2023-02-22T09:21:33.511Z,5.7
2023-02-22T09:23:58.136Z,5.7
2023-02-22T09:26:25.708Z,5.8
2023-02-22T09:28:51.857Z,5.9
2023-02-22T09:31:16.427Z,6.1
2023-02-22T09:33:42.475Z,6.2
2023-02-22T09:36:08.514Z,6.3
2023-02-22T09:38:34.735Z,6.4
2023-02-22T09:41:00.779Z,6.6
2023-02-22T09:43:26.855Z,6.8
2023-02-22T09:45:52.895Z,6.9
2023-02-22T09:48:19.088Z,7.1
2023-02-22T09:50:45.109Z,7.3
2023-02-22T09:53:11.207Z,7.4
2023-02-22T09:55:37.287Z,7.6
2023-02-22T09:58:02.393Z,7.8
2023-02-22T10:00:28.509Z,8
2023-02-22T10:02:54.719Z,8.1
2023-02-22T10:05:20.720Z,8.3
2023-02-22T10:07:46.770Z,8.5
2023-02-22T10:10:12.911Z,8.6
2023-02-22T10:12:38.978Z,8.8
2023-02-22T10:15:05.079Z,8.9
2023-02-22T10:17:31.163Z,9.1
2023-02-22T10:19:57.253Z,9.2
2023-02-22T10:22:23.375Z,9.4
2023-02-22T10:24:49.468Z,9.5
2023-02-22T10:27:15.561Z,9.6
2023-02-22T10:29:41.634Z,9.7
2023-02-22T10:32:07.732Z,9.8
2023-02-22T10:34:33.841Z,9.9
2023-02-22T10:36:59.939Z,10.1
2023-02-22T10:39:26.040Z,10.2
2023-02-22T10:41:52.182Z,10.3
2023-02-22T10:44:18.226Z,10.5
2023-02-22T10:46:44.318Z,10.6
2023-02-22T10:49:10.441Z,10.7
2023-02-22T10:51:35.611Z,10.9
2023-02-22T10:54:01.638Z,11
2023-02-22T10:56:27.744Z,11.1
2023-02-22T10:58:53.810Z,11.3
2023-02-22T11:01:19.902Z,11.4
2023-02-22T11:03:46.006Z,11.5
2023-02-22T11:06:12.099Z,11.6
2023-02-22T11:08:38.224Z,11.7
2023-02-22T11:11:04.336Z,11.8
2023-02-22T11:13:30.444Z,12
2023-02-22T11:15:56.512Z,12.1
2023-02-22T11:18:22.691Z,12.2
2023-02-22T11:20:48.698Z,12.3
2023-02-22T11:23:13.825Z,12.4
2023-02-22T11:25:39.977Z,12.6
2023-02-22T11:28:06.018Z,12.7
2023-02-22T11:30:32.073Z,12.8
2023-02-22T11:32:58.176Z,12.9
2023-02-22T11:35:24.271Z,13.1
2023-02-22T11:37:50.387Z,13.2
2023-02-22T11:40:16.465Z,13.3
2023-02-22T11:42:41.576Z,13.5
2023-02-22T11:45:07.704Z,13.6
2023-02-22T11:47:33.766Z,13.7
2023-02-22T11:49:59.871Z,13.7
2023-02-22T11:52:26.037Z,13.8
2023-02-22T11:54:52.225Z,13.9
2023-02-22T11:57:18.127Z,14
2023-02-22T11:59:44.334Z,14
2023-02-22T12:02:10.333Z,14.1
2023-02-22T12:04:36.423Z,14.2
2023-02-22T12:07:02.526Z,14.2
2023-02-22T12:09:28.671Z,14.3
2023-02-22T12:11:54.745Z,14.3
2023-02-22T12:14:19.965Z,14.4
2023-02-22T12:16:46.106Z,14.4
2023-02-22T12:19:12.034Z,14.4
2023-02-22T12:21:38.118Z,14.5
2023-02-22T12:24:04.210Z,14.5
2023-02-22T12:26:30.382Z,14.6
2023-02-22T12:28:56.419Z,14.6
2023-02-22T12:31:22.508Z,14.6
2023-02-22T12:33:48.574Z,14.7
2023-02-22T12:36:14.689Z,14.7
2023-02-22T12:38:40.782Z,14.7
2023-02-22T12:41:06.932Z,14.8
2023-02-22T12:43:33.069Z,14.8
2023-02-22T12:45:58.104Z,14.9
2023-02-22T12:48:24.322Z,14.9
2023-02-22T12:50:50.301Z,15
2023-02-22T12:53:16.563Z,15
2023-02-22T12:55:42.508Z,15
2023-02-22T12:58:08.594Z,15.1
2023-02-22T13:00:34.701Z,15.1
2023-02-22T13:03:00.817Z,15.2
2023-02-22T13:05:26.850Z,15.2
2023-02-22T13:07:53.047Z,15.3
2023-02-22T13:10:19.044Z,15.4
2023-02-22T13:12:45.178Z,15.4
2023-02-22T13:15:11.250Z,15.5
2023-02-22T13:17:36.368Z,15.5
2023-02-22T13:20:02.467Z,15.6
2023-02-22T13:22:28.547Z,15.6
2023-02-22T13:24:54.778Z,15.6
2023-02-22T13:27:20.832Z,15.6
2023-02-22T13:29:46.860Z,15.6
2023-02-22T13:32:12.979Z,15.7
2023-02-22T13:34:39.024Z,15.7
2023-02-22T13:37:05.122Z,15.7
2023-02-22T13:39:31.207Z,15.6
2023-02-22T13:41:57.323Z,15.6
2023-02-22T13:44:23.418Z,15.6
2023-02-22T13:46:49.508Z,15.6
2023-02-22T13:49:14.623Z,15.5
2023-02-22T13:51:40.692Z,15.5
2023-02-22T13:54:06.801Z,15.5
2023-02-22T13:56:32.888Z,15.5
2023-02-22T13:58:59.003Z,15.5
2023-02-22T14:01:25.080Z,15.5
2023-02-22T14:03:51.283Z,15.5
2023-02-22T14:06:17.340Z,15.4
2023-02-22T14:08:43.401Z,15.4
2023-02-22T14:11:09.512Z,15.4
2023-02-22T14:13:35.578Z,15.4
2023-02-22T14:16:01.668Z,15.4
2023-02-22T14:18:27.758Z,15.4
2023-02-22T14:20:52.933Z,15.4
2023-02-22T14:23:18.970Z,15.3
2023-02-22T14:25:45.077Z,15.3
2023-02-22T14:28:11.163Z,15.3
2023-02-22T14:30:37.250Z,15.2
2023-02-22T14:33:03.367Z,15.2
2023-02-22T14:35:29.513Z,15.3
2023-02-22T14:37:55.543Z,15.3
2023-02-22T14:40:21.634Z,15.3
2023-02-22T14:42:47.724Z,15.4
2023-02-22T14:45:13.842Z,15.4
2023-02-22T14:47:39.968Z,15.4
2023-02-22T14:50:06.007Z,15.4
2023-02-22T14:52:31.133Z,15.4
2023-02-22T14:54:57.246Z,15.4
2023-02-22T14:57:23.310Z,15.3
2023-02-22T14:59:49.484Z,15.3
2023-02-22T15:02:15.601Z,15.3
2023-02-22T15:04:41.615Z,15.3
2023-02-22T15:07:07.731Z,15.2
2023-02-22T15:09:33.846Z,15.2
2023-02-22T15:11:59.882Z,15.1
2023-02-22T15:14:26.070Z,15.1
2023-02-22T15:16:52.083Z,15
2023-02-22T15:19:18.171Z,14.9
2023-02-22T15:21:44.272Z,14.9
2023-02-22T15:24:09.389Z,14.9
2023-02-22T15:26:35.533Z,14.8
2023-02-22T15:29:01.723Z,14.8
2023-02-22T15:31:27.741Z,14.7
2023-02-22T15:33:53.782Z,14.6
2023-02-22T15:36:19.875Z,14.6
2023-02-22T15:38:45.956Z,14.5
2023-02-22T15:41:12.068Z,14.5
2023-02-22T15:43:38.220Z,14.4
2023-02-22T15:46:04.301Z,14.4
2023-02-22T15:48:30.407Z,14.4
2023-02-22T15:50:56.460Z,14.3
2023-02-22T15:53:22.542Z,14.3
2023-02-22T15:55:47.659Z,14.3
2023-02-22T15:58:13.755Z,14.2
2023-02-22T16:00:39.861Z,14.2
2023-02-22T16:03:05.969Z,14.1
2023-02-22T16:05:32.032Z,14.1
2023-02-22T16:07:58.284Z,14
2023-02-22T16:10:24.359Z,14
2023-02-22T16:12:50.315Z,13.9
2023-02-22T16:15:16.457Z,13.8
2023-02-22T16:17:42.543Z,13.8
2023-02-22T16:20:08.612Z,13.7
2023-02-22T16:22:34.706Z,13.6
2023-02-22T16:25:00.813Z,13.5
2023-02-22T16:27:25.954Z,13.5
2023-02-22T16:29:52.072Z,13.4
2023-02-22T16:32:18.120Z,13.3
2023-02-22T16:34:44.252Z,13.2
2023-02-22T16:37:10.443Z,13.1
2023-02-22T16:39:36.417Z,13
2023-02-22T16:42:02.505Z,13
2023-02-22T16:44:28.577Z,12.8
2023-02-22T16:46:54.708Z,12.7
2023-02-22T16:49:20.877Z,12.6
2023-02-22T16:51:46.989Z,12.5
2023-02-22T16:54:12.994Z,12.4
2023-02-22T16:56:39.108Z,12.3
2023-02-22T16:59:04.203Z,12.2
2023-02-22T17:01:30.280Z,12.1
2023-02-22T17:03:56.382Z,12
2023-02-22T17:06:22.534Z,11.9
2023-02-22T17:08:48.553Z,11.8
2023-02-22T17:11:14.666Z,11.7
2023-02-22T17:13:40.827Z,11.6
2023-02-22T17:16:06.839Z,11.5
2023-02-22T17:18:32.914Z,11.4
2023-02-22T17:20:59.066Z,11.3
2023-02-22T17:23:25.140Z,11.3
2023-02-22T17:25:51.212Z,11.2
2023-02-22T17:28:17.319Z,11.1
2023-02-22T17:30:42.551Z,11
2023-02-22T17:33:08.632Z,10.9
2023-02-22T17:35:34.618Z,10.8
2023-02-22T17:38:00.718Z,10.8
2023-02-22T17:40:26.814Z,10.7
2023-02-22T17:42:52.922Z,10.6
2023-02-22T17:45:19.048Z,10.5
2023-02-22T17:47:45.111Z,10.5
2023-02-22T17:50:11.200Z,10.4
2023-02-22T17:52:37.380Z,10.4
2023-02-22T17:55:03.397Z,10.3
2023-02-22T17:57:29.487Z,10.3
2023-02-22T17:59:55.607Z,10.3
2023-02-22T18:02:20.688Z,10.2
2023-02-22T18:04:46.782Z,10.2
2023-02-22T18:07:12.882Z,10.2
2023-02-22T18:09:38.974Z,10.1
2023-02-22T18:12:05.096Z,10.1
2023-02-22T18:14:31.237Z,10
2023-02-22T18:16:57.275Z,9.9
2023-02-22T18:19:23.372Z,9.9
2023-02-22T18:21:49.457Z,9.8
2023-02-22T18:24:15.581Z,9.7
2023-02-22T18:26:41.665Z,9.6
2023-02-22T18:29:07.748Z,9.6
2023-02-22T18:31:33.856Z,9.5
2023-02-22T18:33:58.953Z,9.4
2023-02-22T18:36:25.076Z,9.4
2023-02-22T18:38:51.147Z,9.3
2023-02-22T18:41:17.247Z,9.3
2023-02-22T18:43:43.397Z,9.2
2023-02-22T18:46:09.450Z,9.1
2023-02-22T18:48:35.520Z,9.1
2023-02-22T18:51:01.625Z,9
2023-02-22T18:53:27.727Z,9
2023-02-22T18:55:53.824Z,8.9
2023-02-22T18:58:19.908Z,8.9
2023-02-22T19:00:46.013Z,8.8
2023-02-22T19:03:12.106Z,8.8
2023-02-22T19:05:37.218Z,8.7
2023-02-22T19:08:03.316Z,8.6
2023-02-22T19:10:29.428Z,8.6
2023-02-22T19:15:21.676Z,8.5
2023-02-22T19:17:47.707Z,8.5
2023-02-22T19:20:13.805Z,8.5
2023-02-22T19:22:39.985Z,8.4
2023-02-22T19:25:05.995Z,8.4
2023-02-22T19:27:32.091Z,8.4
2023-02-22T19:29:58.239Z,8.3
2023-02-22T19:32:24.295Z,8.3
2023-02-22T19:34:50.394Z,8.3
2023-02-22T19:37:15.503Z,8.3
2023-02-22T19:39:41.694Z,8.2
2023-02-22T19:42:07.666Z,8.2
2023-02-22T19:44:33.788Z,8.2
2023-02-22T19:46:59.881Z,8.2
2023-02-22T19:49:25.966Z,8.2
2023-02-22T19:51:51.087Z,8.1
2023-02-22T19:54:17.179Z,8.1
2023-02-22T19:56:43.334Z,8.1
2023-02-22T19:59:09.410Z,8.1
2023-02-22T20:01:35.472Z,8.1
2023-02-22T20:04:01.552Z,8.1
2023-02-22T20:06:27.671Z,8.1
2023-02-22T20:08:53.789Z,8.1
2023-02-22T20:11:19.850Z,8.1
2023-02-22T20:13:45.950Z,8
2023-02-22T20:16:12.033Z,8
2023-02-22T20:18:38.138Z,8
2023-02-22T20:21:04.239Z,8
2023-02-22T20:23:29.374Z,8
2023-02-22T20:25:55.462Z,8
2023-02-22T20:28:21.538Z,7.9
2023-02-22T20:30:47.642Z,7.9
2023-02-22T20:33:13.727Z,7.9
2023-02-22T20:35:39.826Z,7.9
2023-02-22T20:38:05.916Z,7.9
2023-02-22T20:40:32.027Z,7.9
2023-02-22T20:42:58.127Z,7.9
2023-02-22T20:45:24.209Z,7.8
2023-02-22T20:47:50.315Z,7.8
2023-02-22T20:50:16.397Z,7.8
2023-02-22T20:52:42.508Z,7.8
2023-02-22T20:55:07.620Z,7.8
2023-02-22T20:57:33.695Z,7.7
2023-02-22T20:59:59.839Z,7.7
2023-02-22T21:02:25.907Z,7.7
2023-02-22T21:04:52.004Z,7.7
2023-02-22T21:07:18.144Z,7.6
2023-02-22T21:09:44.236Z,7.6
2023-02-22T21:12:10.380Z,7.6
2023-02-22T21:14:36.426Z,7.6
2023-02-22T21:17:02.489Z,7.5
2023-02-22T21:19:28.572Z,7.5
2023-02-22T21:21:54.672Z,7.5
2023-02-22T21:24:20.791Z,7.5
2023-02-22T21:26:45.952Z,7.4
2023-02-22T21:29:11.965Z,7.4
2023-02-22T21:31:38.128Z,7.4
2023-02-22T21:34:04.174Z,7.3
2023-02-22T21:36:30.288Z,7.3
2023-02-22T21:38:56.423Z,7.3
2023-02-22T21:41:22.453Z,7.2
2023-02-22T21:43:48.544Z,7.2
2023-02-22T21:46:14.645Z,7.2
2023-02-22T21:48:40.781Z,7.1
2023-02-22T21:51:06.817Z,7.1
2023-02-22T21:53:32.944Z,7.1
2023-02-22T21:55:59.018Z,7.1
2023-02-22T21:58:24.196Z,7
2023-02-22T22:00:50.295Z,7
2023-02-22T22:03:16.379Z,7
2023-02-22T22:05:42.427Z,6.9
2023-02-22T22:08:08.536Z,6.9
2023-02-22T22:10:34.623Z,6.8
2023-02-22T22:13:00.707Z,6.8
2023-02-22T22:15:26.940Z,6.8
2023-02-22T22:17:52.890Z,6.8
2023-02-22T22:20:19.156Z,6.7
2023-02-22T22:22:45.109Z,6.7
2023-02-22T22:25:11.184Z,6.7
2023-02-22T22:27:37.297Z,6.7
2023-02-22T22:30:02.399Z,6.7
2023-02-22T22:32:28.498Z,6.7
2023-02-22T22:34:54.574Z,6.6
2023-02-22T22:37:20.677Z,6.6
2023-02-22T22:39:46.770Z,6.6
2023-02-22T22:42:12.901Z,6.6
2023-02-22T22:44:38.968Z,6.6
2023-02-22T22:47:05.071Z,6.6
2023-02-22T22:49:31.149Z,6.6
2023-02-22T22:51:57.244Z,6.5
2023-02-22T22:54:23.430Z,6.5
2023-02-22T22:56:49.444Z,6.5
2023-02-22T22:59:15.616Z,6.5
2023-02-22T23:01:40.661Z,6.5
2023-02-22T23:04:06.727Z,6.5
2023-02-22T23:06:32.830Z,6.5
2023-02-22T23:08:58.937Z,6.5
2023-02-22T23:11:25.063Z,6.5
2023-02-22T23:13:52.158Z,6.5
2023-02-22T23:16:17.226Z,6.5
2023-02-22T23:18:43.322Z,6.5
2023-02-22T23:21:09.397Z,6.5
2023-02-22T23:23:35.508Z,6.5
2023-02-22T23:26:01.595Z,6.5
2023-02-22T23:28:27.686Z,6.5
2023-02-22T23:30:53.834Z,6.5
2023-02-22T23:33:18.908Z,6.5
2023-02-22T23:35:45.007Z,6.5
2023-02-22T23:38:11.122Z,6.5
2023-02-22T23:43:03.294Z,6.5
2023-02-22T23:45:29.376Z,6.6
2023-02-22T23:47:55.583Z,6.6
2023-02-22T23:50:21.571Z,6.6
2023-02-22T23:52:47.678Z,6.7
2023-02-22T23:55:13.758Z,6.7
2023-02-22T23:57:39.869Z,6.7
